createdAt,value
2019-02-19T00:00:06.499Z,10.77
2019-02-19T00:03:10.121Z,10.87
2019-02-19T00:06:13.693Z,10.27
2019-02-19T00:09:17.249Z,10.10
2019-02-19T00:12:20.815Z,10.00
2019-02-19T00:15:24.372Z,10.30
2019-02-19T00:18:27.942Z,9.60
2019-02-19T00:21:31.508Z,9.63
2019-02-19T00:24:35.161Z,9.43
2019-02-19T00:27:38.725Z,9.20
2019-02-19T00:30:42.300Z,9.43
2019-02-19T00:33:45.874Z,9.63
2019-02-19T00:36:49.691Z,9.70
2019-02-19T00:39:53.547Z,9.00
2019-02-19T00:42:57.112Z,9.17
2019-02-19T00:46:00.775Z,8.50
2019-02-19T00:49:04.899Z,8.67
2019-02-19T00:52:08.563Z,8.50
2019-02-19T00:55:12.120Z,8.90
2019-02-19T00:58:15.679Z,8.47
2019-02-19T01:01:19.234Z,8.77
2019-02-19T01:04:23.126Z,8.50
2019-02-19T01:07:26.750Z,7.73
2019-02-19T01:10:30.380Z,8.30
2019-02-19T01:13:33.958Z,8.23
2019-02-19T01:16:37.835Z,8.30
2019-02-19T01:19:41.473Z,8.17
2019-02-19T01:22:45.337Z,8.13
2019-02-19T01:25:48.957Z,7.83
2019-02-19T01:28:52.633Z,8.27
2019-02-19T01:31:56.264Z,7.70
2019-02-19T01:34:59.831Z,7.43
2019-02-19T01:38:04.886Z,7.73
2019-02-19T01:41:08.801Z,7.80
2019-02-19T01:44:12.374Z,7.80
2019-02-19T01:47:16.528Z,7.43
2019-02-19T01:50:20.106Z,7.23
2019-02-19T01:53:23.910Z,6.67
2019-02-19T01:56:27.476Z,7.47
2019-02-19T01:59:31.453Z,7.60
2019-02-19T02:02:35.020Z,6.93
2019-02-19T02:05:38.585Z,6.83
2019-02-19T02:08:42.150Z,7.03
2019-02-19T02:11:45.970Z,7.20
2019-02-19T02:14:49.812Z,6.80
2019-02-19T02:17:53.362Z,7.17
2019-02-19T02:20:56.926Z,6.77
2019-02-19T02:24:00.492Z,6.80
2019-02-19T02:27:04.364Z,6.80
2019-02-19T02:30:08.180Z,6.30
2019-02-19T02:33:11.752Z,6.67
2019-02-19T02:36:15.642Z,7.00
2019-02-19T02:39:19.189Z,6.53
2019-02-19T02:42:22.797Z,6.60
2019-02-19T02:45:26.598Z,6.90
2019-02-19T02:48:30.751Z,6.40
2019-02-19T02:51:34.309Z,6.13
2019-02-19T02:54:38.115Z,6.73
2019-02-19T02:57:41.659Z,6.73
2019-02-19T03:00:45.218Z,5.97
2019-02-19T03:03:48.762Z,6.03
2019-02-19T03:07:02.243Z,6.57
2019-02-19T03:10:06.121Z,6.23
2019-02-19T03:13:09.670Z,6.20
2019-02-19T03:16:13.550Z,6.47
2019-02-19T03:19:17.368Z,5.67
2019-02-19T03:22:21.027Z,5.90
2019-02-19T03:25:25.167Z,6.33
2019-02-19T03:28:28.715Z,6.70
2019-02-19T03:31:32.271Z,5.87
2019-02-19T03:34:35.816Z,6.23
2019-02-19T03:37:39.379Z,6.67
2019-02-19T03:40:42.936Z,6.60
2019-02-19T03:43:46.506Z,5.93
2019-02-19T03:46:50.306Z,6.23
2019-02-19T03:49:53.852Z,6.30
2019-02-19T03:52:57.479Z,5.83
2019-02-19T03:56:01.046Z,6.27
2019-02-19T03:59:05.008Z,6.20
2019-02-19T04:02:08.575Z,6.63
2019-02-19T04:05:12.428Z,5.90
2019-02-19T04:08:16.299Z,5.83
2019-02-19T04:11:19.854Z,5.90
2019-02-19T04:14:23.401Z,5.50
2019-02-19T04:17:27.280Z,5.80
2019-02-19T04:20:30.881Z,5.30
2019-02-19T04:23:34.432Z,5.27
2019-02-19T04:26:38.048Z,5.47
2019-02-19T04:29:42.186Z,5.50
2019-02-19T04:32:45.747Z,5.63
2019-02-19T04:35:49.306Z,5.93
2019-02-19T04:38:52.844Z,6.33
2019-02-19T04:41:56.475Z,5.90
2019-02-19T04:45:00.063Z,5.40
2019-02-19T04:48:03.775Z,5.50
2019-02-19T04:51:07.391Z,5.73
2019-02-19T04:54:10.953Z,5.60
2019-02-19T04:57:14.831Z,5.33
2019-02-19T05:00:18.378Z,6.23
2019-02-19T05:03:21.928Z,5.70
2019-02-19T05:06:25.505Z,5.27
2019-02-19T05:09:29.058Z,4.97
2019-02-19T05:12:32.598Z,4.63
2019-02-19T05:15:36.460Z,4.73
2019-02-19T05:18:40.010Z,5.37
2019-02-19T05:21:43.558Z,5.93
2019-02-19T05:24:47.124Z,30.93
2019-02-19T05:27:50.791Z,37.97
2019-02-19T05:30:55.023Z,21.10
2019-02-19T05:33:58.583Z,18.30
2019-02-19T05:37:02.131Z,18.67
2019-02-19T05:40:05.910Z,17.37
2019-02-19T05:43:09.468Z,16.83
2019-02-19T05:46:13.036Z,16.80
2019-02-19T05:49:16.597Z,15.07
2019-02-19T05:52:20.149Z,13.47
2019-02-19T05:55:23.706Z,17.40
2019-02-19T05:58:27.548Z,23.70
2019-02-19T06:01:31.413Z,35.83
2019-02-19T06:04:35.355Z,44.33
2019-02-19T06:07:38.917Z,39.20
2019-02-19T06:10:44.195Z,29.17
2019-02-19T06:13:47.872Z,29.70
2019-02-19T06:16:58.345Z,29.30
2019-02-19T06:19:56.957Z,27.77
2019-02-19T06:23:00.746Z,26.97
2019-02-19T06:26:04.299Z,26.70
2019-02-19T06:29:07.856Z,24.83
2019-02-19T06:32:11.417Z,25.33
2019-02-19T06:35:14.982Z,24.03
2019-02-19T06:38:18.536Z,23.23
2019-02-19T06:41:22.096Z,22.90
2019-02-19T06:44:26.228Z,21.97
2019-02-19T06:47:29.877Z,22.30
2019-02-19T06:50:33.447Z,21.80
2019-02-19T06:53:37.274Z,20.60
2019-02-19T06:56:40.833Z,20.67
2019-02-19T06:59:44.457Z,19.50
2019-02-19T07:03:09.761Z,20.07
2019-02-19T07:06:13.679Z,19.50
2019-02-19T07:09:17.235Z,18.70
2019-02-19T07:12:20.800Z,17.67
2019-02-19T07:15:24.462Z,17.43
2019-02-19T07:18:28.303Z,17.40
2019-02-19T07:21:32.195Z,17.37
2019-02-19T07:24:35.997Z,17.47
2019-02-19T07:27:39.805Z,16.23
2019-02-19T07:30:43.372Z,16.30
2019-02-19T07:33:47.172Z,15.90
2019-02-19T07:36:51.026Z,15.23
2019-02-19T07:39:55.140Z,14.60
2019-02-19T07:42:58.696Z,14.33
2019-02-19T07:46:02.573Z,14.20
2019-02-19T07:49:06.496Z,14.40
2019-02-19T07:52:10.306Z,14.63
2019-02-19T07:55:14.234Z,14.03
2019-02-19T07:58:17.798Z,13.70
2019-02-19T08:01:21.366Z,13.70
2019-02-19T08:04:24.925Z,13.33
2019-02-19T08:07:28.486Z,13.70
2019-02-19T08:10:32.047Z,12.13
2019-02-19T08:13:35.616Z,12.07
2019-02-19T08:16:39.500Z,12.93
2019-02-19T08:19:43.058Z,11.77
2019-02-19T08:22:46.713Z,11.70
2019-02-19T08:25:50.266Z,11.70
2019-02-19T08:28:53.831Z,10.80
2019-02-19T08:31:57.395Z,11.73
2019-02-19T08:35:00.974Z,10.83
2019-02-19T08:38:05.820Z,11.23
2019-02-19T08:41:09.632Z,10.43
2019-02-19T08:44:13.271Z,11.23
2019-02-19T08:47:17.126Z,10.60
2019-02-19T08:50:20.941Z,10.83
2019-02-19T08:53:24.504Z,10.53
2019-02-19T08:56:28.356Z,10.43
2019-02-19T08:59:31.920Z,10.60
2019-02-19T09:02:35.800Z,9.47
2019-02-19T09:05:39.868Z,10.13
2019-02-19T09:08:43.730Z,9.30
2019-02-19T09:11:47.324Z,8.87
2019-02-19T09:14:51.202Z,9.10
2019-02-19T09:17:55.091Z,8.53
2019-02-19T09:20:58.949Z,8.47
2019-02-19T09:24:09.205Z,8.63
2019-02-19T09:27:07.787Z,8.30
2019-02-19T09:30:11.932Z,9.10
2019-02-19T09:33:15.493Z,8.17
2019-02-19T09:36:19.310Z,8.00
2019-02-19T09:39:23.190Z,7.83
2019-02-19T09:42:27.325Z,7.60
2019-02-19T09:45:30.872Z,7.53
2019-02-19T09:48:34.436Z,7.60
2019-02-19T09:51:37.982Z,7.93
2019-02-19T09:54:41.594Z,8.03
2019-02-19T09:57:45.454Z,6.90
2019-02-19T10:00:49.035Z,7.37
2019-02-19T10:03:52.564Z,7.23
2019-02-19T10:06:56.123Z,6.80
2019-02-19T10:09:59.684Z,6.33
2019-02-19T10:13:03.556Z,7.07
2019-02-19T10:16:07.102Z,6.73
2019-02-19T10:19:10.660Z,6.50
2019-02-19T10:22:14.517Z,6.30
2019-02-19T10:25:18.074Z,6.87
2019-02-19T10:28:22.187Z,6.70
2019-02-19T10:31:25.985Z,6.50
2019-02-19T10:34:29.810Z,6.73
2019-02-19T10:37:33.355Z,5.87
2019-02-19T10:40:36.911Z,5.53
2019-02-19T10:43:40.462Z,5.60
2019-02-19T10:46:44.337Z,6.10
2019-02-19T10:49:48.004Z,6.20
2019-02-19T10:52:51.869Z,5.80
2019-02-19T10:55:55.754Z,5.60
2019-02-19T10:58:59.552Z,5.80
2019-02-19T11:02:03.172Z,5.50
2019-02-19T11:05:06.936Z,5.50
2019-02-19T11:08:10.804Z,5.40
2019-02-19T11:11:14.355Z,5.70
2019-02-19T11:14:17.915Z,6.30
2019-02-19T11:17:21.473Z,5.73
2019-02-19T11:20:25.031Z,5.87
2019-02-19T11:23:28.586Z,5.33
2019-02-19T11:26:32.140Z,5.50
2019-02-19T11:29:35.695Z,4.90
2019-02-19T11:32:39.510Z,5.17
2019-02-19T11:35:43.344Z,4.97
2019-02-19T11:38:46.893Z,5.40
2019-02-19T11:41:50.445Z,4.93
2019-02-19T11:44:54.001Z,4.50
2019-02-19T11:47:57.973Z,4.83
2019-02-19T11:51:02.155Z,4.80
2019-02-19T11:54:05.979Z,4.50
2019-02-19T11:57:09.531Z,4.23
2019-02-19T12:00:16.568Z,4.43
2019-02-19T12:03:20.107Z,4.30
2019-02-19T12:06:23.653Z,4.63
2019-02-19T12:09:27.809Z,4.47
2019-02-19T12:12:31.680Z,4.13
2019-02-19T12:15:35.692Z,4.50
2019-02-19T12:18:45.852Z,4.10
2019-02-19T12:21:44.888Z,4.13
2019-02-19T12:24:48.797Z,4.40
2019-02-19T12:27:52.350Z,3.90
2019-02-19T12:30:56.184Z,4.43
2019-02-19T12:33:59.724Z,3.80
2019-02-19T12:37:03.273Z,3.83
2019-02-19T12:40:07.784Z,4.00
2019-02-19T12:43:11.324Z,4.17
2019-02-19T12:46:14.875Z,3.80
2019-02-19T12:49:18.721Z,3.70
2019-02-19T12:52:22.539Z,3.50
2019-02-19T12:55:26.086Z,3.67
2019-02-19T12:58:29.943Z,3.60
2019-02-19T13:01:33.501Z,3.70
2019-02-19T13:04:37.049Z,3.60
2019-02-19T13:07:40.939Z,3.40
2019-02-19T13:10:44.807Z,3.33
2019-02-19T13:13:48.343Z,3.40
2019-02-19T13:16:51.903Z,3.60
2019-02-19T13:19:55.450Z,3.40
2019-02-19T13:22:59.011Z,3.77
2019-02-19T13:26:02.572Z,3.73
2019-02-19T13:29:06.114Z,3.57
2019-02-19T13:32:09.742Z,3.60
2019-02-19T13:35:13.672Z,3.50
2019-02-19T13:38:17.223Z,2.87
2019-02-19T13:41:21.124Z,3.40
2019-02-19T13:44:24.997Z,3.13
2019-02-19T13:47:29.058Z,3.13
2019-02-19T13:50:32.957Z,3.03
2019-02-19T13:53:46.372Z,3.20
2019-02-19T13:56:49.918Z,3.37
2019-02-19T13:59:53.737Z,3.10
2019-02-19T14:02:57.288Z,2.87
2019-02-19T14:06:01.423Z,3.00
2019-02-19T14:09:05.816Z,3.10
2019-02-19T14:12:09.675Z,3.13
2019-02-19T14:15:31.007Z,2.80
2019-02-19T14:19:06.020Z,3.10
2019-02-19T14:22:27.190Z,2.80
2019-02-19T14:25:44.520Z,3.00
2019-02-19T14:29:10.207Z,2.80
2019-02-19T14:32:35.752Z,2.80
2019-02-19T14:36:01.403Z,2.73
2019-02-19T14:39:24.576Z,2.90
2019-02-19T14:42:56.443Z,2.50
2019-02-19T14:46:18.547Z,2.67
2019-02-19T14:49:47.819Z,2.80
2019-02-19T14:53:09.089Z,2.77
2019-02-19T14:56:22.103Z,2.47
2019-02-19T14:59:46.194Z,2.67
2019-02-19T15:03:03.937Z,2.70
2019-02-19T15:06:25.502Z,2.67
2019-02-19T15:09:47.116Z,2.60
2019-02-19T15:13:09.001Z,2.83
2019-02-19T15:16:39.346Z,2.53
2019-02-19T15:20:03.531Z,2.50
2019-02-19T15:23:28.883Z,2.70
2019-02-19T15:26:52.381Z,2.30
2019-02-19T15:30:18.014Z,2.43
2019-02-19T15:33:32.665Z,2.47
2019-02-19T15:36:54.235Z,2.47
2019-02-19T15:40:16.823Z,2.10
2019-02-19T15:43:33.077Z,2.37
2019-02-19T15:46:52.853Z,2.10
2019-02-19T15:50:14.389Z,2.40
2019-02-19T15:53:38.387Z,2.83
2019-02-19T15:57:03.392Z,2.13
2019-02-19T16:00:25.315Z,2.50
2019-02-19T16:03:33.489Z,2.33
2019-02-19T16:06:58.321Z,2.50
2019-02-19T16:10:15.546Z,2.17
2019-02-19T16:13:27.125Z,2.20
2019-02-19T16:16:45.178Z,2.00
2019-02-19T16:20:10.629Z,1.83
2019-02-19T16:23:23.507Z,1.97
2019-02-19T16:26:36.953Z,1.90
2019-02-19T16:29:48.446Z,1.90
2019-02-19T16:33:05.142Z,1.87
2019-02-19T16:36:18.389Z,2.00
2019-02-19T16:39:40.215Z,2.00
2019-02-19T16:43:01.669Z,2.00
2019-02-19T16:46:13.541Z,1.93
2019-02-19T16:49:40.578Z,1.87
2019-02-19T16:52:54.433Z,1.97
2019-02-19T16:56:13.596Z,1.87
2019-02-19T16:59:48.863Z,2.03
2019-02-19T17:02:56.850Z,1.57
2019-02-19T17:06:22.642Z,2.07
2019-02-19T17:09:48.050Z,2.00
2019-02-19T17:13:10.912Z,1.80
2019-02-19T17:16:28.486Z,2.00
2019-02-19T17:19:49.675Z,2.10
2019-02-19T17:22:58.725Z,2.10
2019-02-19T17:26:09.120Z,1.80
2019-02-19T17:29:19.245Z,1.70
2019-02-19T17:32:40.364Z,1.93
2019-02-19T17:36:06.300Z,2.00
2019-02-19T17:39:27.986Z,1.83
2019-02-19T17:42:45.753Z,2.17
2019-02-19T17:46:14.150Z,1.90
2019-02-19T17:49:40.137Z,1.77
2019-02-19T17:53:05.720Z,1.83
2019-02-19T17:56:28.232Z,1.77
2019-02-19T17:59:49.750Z,2.00
2019-02-19T18:03:12.349Z,1.60
2019-02-19T18:06:31.942Z,1.90
2019-02-19T18:09:52.793Z,1.70
2019-02-19T18:13:14.697Z,2.03
2019-02-19T18:16:27.558Z,1.90
2019-02-19T18:19:31.127Z,2.30
2019-02-19T18:22:34.904Z,2.00
2019-02-19T18:25:38.709Z,2.30
2019-02-19T18:28:42.265Z,2.27
2019-02-19T18:31:45.816Z,2.50
2019-02-19T18:34:49.363Z,2.20
2019-02-19T18:37:52.912Z,2.30
2019-02-19T18:40:56.458Z,2.33
2019-02-19T18:44:00.006Z,2.23
2019-02-19T18:47:03.585Z,2.77
2019-02-19T18:50:07.506Z,2.43
2019-02-19T18:53:11.103Z,2.60
2019-02-19T18:56:14.728Z,2.53
2019-02-19T18:59:18.632Z,2.23
2019-02-19T19:02:22.172Z,2.60
2019-02-19T19:05:25.967Z,2.40
2019-02-19T19:08:29.815Z,2.07
2019-02-19T19:11:33.363Z,2.27
2019-02-19T19:14:36.923Z,2.30
2019-02-19T19:17:40.467Z,2.27
2019-02-19T19:20:44.365Z,2.33
2019-02-19T19:23:47.921Z,2.30
2019-02-19T19:26:51.463Z,2.23
2019-02-19T19:29:55.223Z,2.20
2019-02-19T19:32:59.440Z,2.77
2019-02-19T19:36:02.993Z,1.90
2019-02-19T19:39:07.327Z,1.90
2019-02-19T19:42:10.882Z,2.20
2019-02-19T19:45:14.810Z,2.33
2019-02-19T19:48:18.372Z,1.97
2019-02-19T19:51:22.002Z,2.27
2019-02-19T19:54:25.554Z,2.00
2019-02-19T19:57:29.144Z,2.00
2019-02-19T20:00:33.314Z,2.30
2019-02-19T20:03:37.120Z,2.03
2019-02-19T20:06:40.958Z,2.30
2019-02-19T20:09:45.077Z,2.00
2019-02-19T20:12:48.629Z,2.03
2019-02-19T20:15:52.184Z,2.27
2019-02-19T20:18:55.737Z,2.00
2019-02-19T20:21:59.287Z,2.10
2019-02-19T20:25:02.892Z,2.10
2019-02-19T20:28:06.767Z,2.13
2019-02-19T20:31:10.322Z,2.50
2019-02-19T20:34:14.378Z,2.23
2019-02-19T20:37:17.921Z,2.13
2019-02-19T20:40:21.482Z,2.33
2019-02-19T20:43:25.318Z,1.97
2019-02-19T20:46:28.906Z,2.20
2019-02-19T20:49:32.465Z,2.47
2019-02-19T20:52:36.011Z,2.00
2019-02-19T20:55:39.784Z,2.07
2019-02-19T20:58:43.737Z,2.10
2019-02-19T21:01:47.292Z,2.33
2019-02-19T21:04:50.845Z,2.17
2019-02-19T21:07:54.397Z,2.10
2019-02-19T21:10:58.185Z,2.30
2019-02-19T21:14:01.737Z,2.27
2019-02-19T21:17:05.417Z,2.07
2019-02-19T21:20:09.291Z,2.57
2019-02-19T21:23:12.894Z,2.40
2019-02-19T21:26:16.443Z,2.20
2019-02-19T21:29:19.992Z,2.50
2019-02-19T21:32:23.796Z,2.20
2019-02-19T21:35:27.916Z,32.97
2019-02-19T21:38:31.471Z,14.20
2019-02-19T21:41:35.295Z,24.17
2019-02-19T21:44:38.852Z,86.63
2019-02-19T21:47:42.433Z,70.30
2019-02-19T21:50:45.996Z,64.73
2019-02-19T21:53:49.554Z,56.30
2019-02-19T21:56:53.135Z,47.07
2019-02-19T21:59:56.694Z,39.17
2019-02-19T22:03:00.262Z,36.20
2019-02-19T22:06:03.832Z,32.53
2019-02-19T22:09:07.396Z,31.30
2019-02-19T22:12:11.022Z,30.10
2019-02-19T22:15:14.680Z,28.67
2019-02-19T22:18:18.525Z,26.13
2019-02-19T22:21:33.273Z,26.83
2019-02-19T22:24:37.824Z,25.70
2019-02-19T22:27:41.703Z,24.63
2019-02-19T22:30:45.731Z,24.17
2019-02-19T22:33:49.292Z,77.57
2019-02-19T22:36:53.184Z,50.13
2019-02-19T22:39:57.021Z,118.00
2019-02-19T22:43:00.679Z,69.63
2019-02-19T22:46:04.253Z,119.00
2019-02-19T22:49:07.830Z,109.30
2019-02-19T22:52:12.796Z,97.93
2019-02-19T22:55:31.657Z,91.27
2019-02-19T22:58:35.224Z,82.50
2019-02-19T23:02:01.989Z,75.53
2019-02-19T23:05:06.147Z,64.40
2019-02-19T23:08:10.008Z,59.13
2019-02-19T23:11:13.897Z,55.03
2019-02-19T23:14:17.777Z,50.93
2019-02-19T23:17:21.649Z,49.70
2019-02-19T23:20:25.199Z,45.53
2019-02-19T23:23:29.486Z,46.47
2019-02-19T23:26:33.369Z,42.20
2019-02-19T23:29:37.194Z,43.37
2019-02-19T23:32:40.752Z,42.37
2019-02-19T23:35:55.156Z,40.80
2019-02-19T23:38:58.736Z,38.30
2019-02-19T23:42:02.584Z,37.97
2019-02-19T23:45:06.375Z,37.10
2019-02-19T23:48:10.232Z,36.40
2019-02-19T23:51:13.792Z,33.50
2019-02-19T23:54:17.361Z,34.50
2019-02-19T23:57:20.910Z,34.93
